sensor_id;sensor_type;location;lat;lon;timestamp;P1;durP1;ratioP1;P2;durP2;ratioP2
6420;SDS011;3243;50.958;7.012;2024-02-14T00:01:06;5.30;;;2.47;;
6420;SDS011;3243;50.958;7.012;2024-02-14T00:03:36;5.43;;;2.37;;
6420;SDS011;3243;50.958;7.012;2024-02-14T00:06:05;4.43;;;2.23;;
6420;SDS011;3243;50.958;7.012;2024-02-14T00:08:32;3.57;;;2.40;;
6420;SDS011;3243;50.958;7.012;2024-02-14T00:10:59;4.07;;;2.30;;
6420;SDS011;3243;50.958;7.012;2024-02-14T00:13:26;3.87;;;2.37;;
6420;SDS011;3243;50.958;7.012;2024-02-14T00:15:53;3.60;;;2.50;;
6420;SDS011;3243;50.958;7.012;2024-02-14T00:18:20;4.00;;;2.37;;
6420;SDS011;3243;50.958;7.012;2024-02-14T00:20:49;3.97;;;2.10;;
6420;SDS011;3243;50.958;7.012;2024-02-14T00:23:16;4.50;;;2.27;;
6420;SDS011;3243;50.958;7.012;2024-02-14T00:25:43;3.10;;;1.90;;
6420;SDS011;3243;50.958;7.012;2024-02-14T00:28:10;3.03;;;2.00;;
6420;SDS011;3243;50.958;7.012;2024-02-14T00:30:36;2.27;;;1.80;;
6420;SDS011;3243;50.958;7.012;2024-02-14T00:33:03;4.07;;;1.70;;
6420;SDS011;3243;50.958;7.012;2024-02-14T00:35:31;2.93;;;1.60;;
6420;SDS011;3243;50.958;7.012;2024-02-14T00:37:58;4.07;;;1.90;;
6420;SDS011;3243;50.958;7.012;2024-02-14T00:40:27;2.00;;;1.70;;
6420;SDS011;3243;50.958;7.012;2024-02-14T00:42:54;3.63;;;2.00;;
6420;SDS011;3243;50.958;7.012;2024-02-14T00:45:21;3.67;;;1.90;;
6420;SDS011;3243;50.958;7.012;2024-02-14T00:47:48;2.23;;;1.70;;
6420;SDS011;3243;50.958;7.012;2024-02-14T00:50:15;2.00;;;1.57;;
6420;SDS011;3243;50.958;7.012;2024-02-14T00:52:42;2.03;;;1.50;;
6420;SDS011;3243;50.958;7.012;2024-02-14T00:55:09;3.80;;;1.83;;
6420;SDS011;3243;50.958;7.012;2024-02-14T00:57:37;1.60;;;1.47;;
6420;SDS011;3243;50.958;7.012;2024-02-14T01:00:04;1.80;;;1.60;;
6420;SDS011;3243;50.958;7.012;2024-02-14T01:02:33;3.53;;;1.80;;
6420;SDS011;3243;50.958;7.012;2024-02-14T01:04:59;2.20;;;1.63;;
6420;SDS011;3243;50.958;7.012;2024-02-14T01:07:26;3.23;;;1.57;;
6420;SDS011;3243;50.958;7.012;2024-02-14T01:09:53;3.63;;;1.50;;
6420;SDS011;3243;50.958;7.012;2024-02-14T01:12:20;2.97;;;1.60;;
6420;SDS011;3243;50.958;7.012;2024-02-14T01:14:47;3.03;;;1.50;;
6420;SDS011;3243;50.958;7.012;2024-02-14T01:17:14;1.90;;;1.50;;
6420;SDS011;3243;50.958;7.012;2024-02-14T01:19:41;2.20;;;1.73;;
6420;SDS011;3243;50.958;7.012;2024-02-14T01:22:08;1.67;;;1.30;;
6420;SDS011;3243;50.958;7.012;2024-02-14T01:24:35;1.60;;;1.50;;
6420;SDS011;3243;50.958;7.012;2024-02-14T01:27:02;1.77;;;1.50;;
6420;SDS011;3243;50.958;7.012;2024-02-14T01:29:30;1.90;;;1.60;;
6420;SDS011;3243;50.958;7.012;2024-02-14T01:31:56;1.87;;;1.50;;
6420;SDS011;3243;50.958;7.012;2024-02-14T01:34:23;3.50;;;1.43;;
6420;SDS011;3243;50.958;7.012;2024-02-14T01:36:50;2.67;;;1.60;;
6420;SDS011;3243;50.958;7.012;2024-02-14T01:39:17;2.23;;;1.40;;
6420;SDS011;3243;50.958;7.012;2024-02-14T01:41:45;1.43;;;1.33;;
6420;SDS011;3243;50.958;7.012;2024-02-14T01:44:15;2.50;;;1.50;;
6420;SDS011;3243;50.958;7.012;2024-02-14T01:46:43;2.13;;;1.50;;
6420;SDS011;3243;50.958;7.012;2024-02-14T01:49:10;2.27;;;1.40;;
6420;SDS011;3243;50.958;7.012;2024-02-14T01:51:42;2.13;;;1.50;;
6420;SDS011;3243;50.958;7.012;2024-02-14T01:54:14;1.93;;;1.43;;
6420;SDS011;3243;50.958;7.012;2024-02-14T01:56:43;3.23;;;1.40;;
6420;SDS011;3243;50.958;7.012;2024-02-14T01:59:12;1.53;;;1.43;;
6420;SDS011;3243;50.958;7.012;2024-02-14T02:01:42;1.50;;;1.40;;
6420;SDS011;3243;50.958;7.012;2024-02-14T02:04:09;1.50;;;1.30;;
6420;SDS011;3243;50.958;7.012;2024-02-14T02:06:36;1.60;;;1.50;;
6420;SDS011;3243;50.958;7.012;2024-02-14T02:09:03;2.37;;;1.20;;
6420;SDS011;3243;50.958;7.012;2024-02-14T02:11:31;2.73;;;1.60;;
6420;SDS011;3243;50.958;7.012;2024-02-14T02:14:19;2.93;;;1.50;;
6420;SDS011;3243;50.958;7.012;2024-02-14T02:16:48;1.57;;;1.43;;
6420;SDS011;3243;50.958;7.012;2024-02-14T02:19:15;2.90;;;1.50;;
6420;SDS011;3243;50.958;7.012;2024-02-14T02:21:43;1.67;;;1.50;;
6420;SDS011;3243;50.958;7.012;2024-02-14T02:24:12;2.37;;;1.40;;
6420;SDS011;3243;50.958;7.012;2024-02-14T02:26:39;2.50;;;1.50;;
6420;SDS011;3243;50.958;7.012;2024-02-14T02:29:06;2.23;;;1.30;;
6420;SDS011;3243;50.958;7.012;2024-02-14T02:31:33;1.40;;;1.30;;
6420;SDS011;3243;50.958;7.012;2024-02-14T02:34:00;2.70;;;1.30;;
6420;SDS011;3243;50.958;7.012;2024-02-14T02:36:27;1.50;;;1.23;;
6420;SDS011;3243;50.958;7.012;2024-02-14T02:38:56;1.30;;;1.20;;
6420;SDS011;3243;50.958;7.012;2024-02-14T02:41:24;3.33;;;1.37;;
6420;SDS011;3243;50.958;7.012;2024-02-14T02:43:51;3.90;;;1.13;;
6420;SDS011;3243;50.958;7.012;2024-02-14T02:46:20;2.20;;;1.47;;
6420;SDS011;3243;50.958;7.012;2024-02-14T02:48:48;1.73;;;1.40;;
6420;SDS011;3243;50.958;7.012;2024-02-14T02:51:16;1.50;;;1.40;;
6420;SDS011;3243;50.958;7.012;2024-02-14T02:53:44;1.80;;;1.50;;
6420;SDS011;3243;50.958;7.012;2024-02-14T02:56:11;2.17;;;1.30;;
6420;SDS011;3243;50.958;7.012;2024-02-14T02:58:38;1.37;;;1.27;;
6420;SDS011;3243;50.958;7.012;2024-02-14T03:01:08;1.50;;;1.40;;
6420;SDS011;3243;50.958;7.012;2024-02-14T03:03:35;1.50;;;1.40;;
6420;SDS011;3243;50.958;7.012;2024-02-14T03:06:05;1.50;;;1.37;;
6420;SDS011;3243;50.958;7.012;2024-02-14T03:08:32;1.93;;;1.37;;
6420;SDS011;3243;50.958;7.012;2024-02-14T03:11:07;2.23;;;1.43;;
6420;SDS011;3243;50.958;7.012;2024-02-14T03:13:34;1.43;;;1.33;;
6420;SDS011;3243;50.958;7.012;2024-02-14T03:16:02;1.40;;;1.30;;
6420;SDS011;3243;50.958;7.012;2024-02-14T03:18:30;2.70;;;1.73;;
6420;SDS011;3243;50.958;7.012;2024-02-14T03:20:58;1.73;;;1.20;;
6420;SDS011;3243;50.958;7.012;2024-02-14T03:23:25;2.03;;;1.50;;
6420;SDS011;3243;50.958;7.012;2024-02-14T03:25:53;2.10;;;1.37;;
6420;SDS011;3243;50.958;7.012;2024-02-14T03:28:20;1.87;;;1.40;;
6420;SDS011;3243;50.958;7.012;2024-02-14T03:30:46;1.57;;;1.47;;
6420;SDS011;3243;50.958;7.012;2024-02-14T03:33:13;1.67;;;1.30;;
6420;SDS011;3243;50.958;7.012;2024-02-14T03:35:41;1.50;;;1.40;;
6420;SDS011;3243;50.958;7.012;2024-02-14T03:38:08;2.17;;;1.50;;
6420;SDS011;3243;50.958;7.012;2024-02-14T03:40:36;1.60;;;1.50;;
6420;SDS011;3243;50.958;7.012;2024-02-14T03:43:04;2.07;;;1.30;;
6420;SDS011;3243;50.958;7.012;2024-02-14T03:45:31;1.50;;;1.40;;
6420;SDS011;3243;50.958;7.012;2024-02-14T03:47:58;1.47;;;1.37;;
6420;SDS011;3243;50.958;7.012;2024-02-14T03:50:25;1.60;;;1.40;;
6420;SDS011;3243;50.958;7.012;2024-02-14T03:52:52;1.40;;;1.30;;
6420;SDS011;3243;50.958;7.012;2024-02-14T03:55:19;1.77;;;1.47;;
6420;SDS011;3243;50.958;7.012;2024-02-14T03:57:45;1.33;;;1.20;;
6420;SDS011;3243;50.958;7.012;2024-02-14T04:00:13;2.87;;;1.40;;
6420;SDS011;3243;50.958;7.012;2024-02-14T04:02:41;1.60;;;1.50;;
6420;SDS011;3243;50.958;7.012;2024-02-14T04:05:08;2.10;;;1.20;;
6420;SDS011;3243;50.958;7.012;2024-02-14T04:07:35;1.57;;;1.47;;
6420;SDS011;3243;50.958;7.012;2024-02-14T04:10:04;2.07;;;1.67;;
6420;SDS011;3243;50.958;7.012;2024-02-14T04:12:31;1.83;;;1.40;;
6420;SDS011;3243;50.958;7.012;2024-02-14T04:14:58;2.10;;;1.43;;
6420;SDS011;3243;50.958;7.012;2024-02-14T04:17:25;1.93;;;1.50;;
6420;SDS011;3243;50.958;7.012;2024-02-14T04:19:52;2.57;;;1.60;;
6420;SDS011;3243;50.958;7.012;2024-02-14T04:22:19;2.00;;;1.40;;
6420;SDS011;3243;50.958;7.012;2024-02-14T04:24:47;1.70;;;1.47;;
6420;SDS011;3243;50.958;7.012;2024-02-14T04:27:14;2.93;;;1.40;;
6420;SDS011;3243;50.958;7.012;2024-02-14T04:29:40;1.57;;;1.47;;
6420;SDS011;3243;50.958;7.012;2024-02-14T04:32:11;2.87;;;1.30;;
6420;SDS011;3243;50.958;7.012;2024-02-14T04:34:39;1.47;;;1.37;;
6420;SDS011;3243;50.958;7.012;2024-02-14T04:37:06;1.60;;;1.50;;
6420;SDS011;3243;50.958;7.012;2024-02-14T04:39:36;1.50;;;1.40;;
6420;SDS011;3243;50.958;7.012;2024-02-14T04:42:03;1.40;;;1.30;;
6420;SDS011;3243;50.958;7.012;2024-02-14T04:44:31;1.63;;;1.20;;
6420;SDS011;3243;50.958;7.012;2024-02-14T04:46:59;1.50;;;1.40;;
6420;SDS011;3243;50.958;7.012;2024-02-14T04:49:26;2.70;;;1.73;;
6420;SDS011;3243;50.958;7.012;2024-02-14T04:51:56;2.23;;;1.50;;
6420;SDS011;3243;50.958;7.012;2024-02-14T04:54:23;3.37;;;1.60;;
6420;SDS011;3243;50.958;7.012;2024-02-14T04:56:52;2.03;;;1.70;;
6420;SDS011;3243;50.958;7.012;2024-02-14T04:59:24;1.60;;;1.50;;
6420;SDS011;3243;50.958;7.012;2024-02-14T05:01:51;1.50;;;1.40;;
6420;SDS011;3243;50.958;7.012;2024-02-14T05:04:19;1.87;;;1.40;;
6420;SDS011;3243;50.958;7.012;2024-02-14T05:06:47;3.43;;;1.40;;
6420;SDS011;3243;50.958;7.012;2024-02-14T05:09:15;2.60;;;1.40;;
6420;SDS011;3243;50.958;7.012;2024-02-14T05:11:42;2.90;;;1.57;;
6420;SDS011;3243;50.958;7.012;2024-02-14T05:14:09;1.53;;;1.43;;
6420;SDS011;3243;50.958;7.012;2024-02-14T05:16:35;1.87;;;1.50;;
6420;SDS011;3243;50.958;7.012;2024-02-14T05:19:02;1.77;;;1.50;;
6420;SDS011;3243;50.958;7.012;2024-02-14T05:21:30;1.50;;;1.40;;
6420;SDS011;3243;50.958;7.012;2024-02-14T05:23:57;3.50;;;1.60;;
6420;SDS011;3243;50.958;7.012;2024-02-14T05:26:24;2.87;;;2.37;;
6420;SDS011;3243;50.958;7.012;2024-02-14T05:28:50;3.10;;;1.83;;
6420;SDS011;3243;50.958;7.012;2024-02-14T05:31:17;2.67;;;1.60;;
6420;SDS011;3243;50.958;7.012;2024-02-14T05:33:44;1.80;;;1.70;;
6420;SDS011;3243;50.958;7.012;2024-02-14T05:36:11;1.57;;;1.47;;
6420;SDS011;3243;50.958;7.012;2024-02-14T05:38:38;1.93;;;1.50;;
6420;SDS011;3243;50.958;7.012;2024-02-14T05:41:05;2.10;;;1.60;;
6420;SDS011;3243;50.958;7.012;2024-02-14T05:43:33;2.67;;;2.00;;
6420;SDS011;3243;50.958;7.012;2024-02-14T05:46:00;4.00;;;1.50;;
6420;SDS011;3243;50.958;7.012;2024-02-14T05:48:27;1.70;;;1.60;;
6420;SDS011;3243;50.958;7.012;2024-02-14T05:50:54;2.00;;;1.70;;
6420;SDS011;3243;50.958;7.012;2024-02-14T05:53:21;2.03;;;1.40;;
6420;SDS011;3243;50.958;7.012;2024-02-14T05:55:48;1.63;;;1.53;;
6420;SDS011;3243;50.958;7.012;2024-02-14T05:58:15;1.83;;;1.47;;
6420;SDS011;3243;50.958;7.012;2024-02-14T06:00:42;2.50;;;1.60;;
6420;SDS011;3243;50.958;7.012;2024-02-14T06:03:09;1.97;;;1.70;;
6420;SDS011;3243;50.958;7.012;2024-02-14T06:05:35;1.50;;;1.40;;
6420;SDS011;3243;50.958;7.012;2024-02-14T06:08:02;2.67;;;1.70;;
6420;SDS011;3243;50.958;7.012;2024-02-14T06:10:29;3.23;;;1.80;;
6420;SDS011;3243;50.958;7.012;2024-02-14T06:12:56;3.10;;;1.73;;
6420;SDS011;3243;50.958;7.012;2024-02-14T06:15:23;2.23;;;1.70;;
6420;SDS011;3243;50.958;7.012;2024-02-14T06:17:50;1.80;;;1.70;;
6420;SDS011;3243;50.958;7.012;2024-02-14T06:20:17;2.40;;;1.80;;
6420;SDS011;3243;50.958;7.012;2024-02-14T06:22:45;2.37;;;1.93;;
6420;SDS011;3243;50.958;7.012;2024-02-14T06:25:26;2.27;;;1.80;;
6420;SDS011;3243;50.958;7.012;2024-02-14T06:27:53;3.20;;;1.90;;
6420;SDS011;3243;50.958;7.012;2024-02-14T06:30:22;4.13;;;2.10;;
6420;SDS011;3243;50.958;7.012;2024-02-14T06:32:52;4.40;;;2.27;;
6420;SDS011;3243;50.958;7.012;2024-02-14T06:35:18;2.27;;;1.97;;
6420;SDS011;3243;50.958;7.012;2024-02-14T06:37:47;2.50;;;2.20;;
6420;SDS011;3243;50.958;7.012;2024-02-14T06:40:28;2.40;;;2.10;;
6420;SDS011;3243;50.958;7.012;2024-02-14T06:42:56;5.07;;;2.23;;
6420;SDS011;3243;50.958;7.012;2024-02-14T06:45:24;4.00;;;2.07;;
6420;SDS011;3243;50.958;7.012;2024-02-14T06:47:55;2.37;;;1.90;;
6420;SDS011;3243;50.958;7.012;2024-02-14T06:50:22;3.70;;;2.10;;
6420;SDS011;3243;50.958;7.012;2024-02-14T06:52:51;2.80;;;1.90;;
6420;SDS011;3243;50.958;7.012;2024-02-14T06:55:18;2.77;;;1.90;;
6420;SDS011;3243;50.958;7.012;2024-02-14T06:57:45;3.10;;;2.00;;
6420;SDS011;3243;50.958;7.012;2024-02-14T07:00:12;3.47;;;1.70;;
6420;SDS011;3243;50.958;7.012;2024-02-14T07:02:39;2.60;;;1.93;;
6420;SDS011;3243;50.958;7.012;2024-02-14T07:05:06;2.67;;;1.93;;
6420;SDS011;3243;50.958;7.012;2024-02-14T07:07:34;1.90;;;1.60;;
6420;SDS011;3243;50.958;7.012;2024-02-14T07:10:01;3.33;;;1.80;;
6420;SDS011;3243;50.958;7.012;2024-02-14T07:12:27;2.30;;;1.80;;
6420;SDS011;3243;50.958;7.012;2024-02-14T07:14:56;2.73;;;1.87;;
6420;SDS011;3243;50.958;7.012;2024-02-14T07:17:24;2.13;;;1.50;;
6420;SDS011;3243;50.958;7.012;2024-02-14T07:19:51;1.63;;;1.53;;
6420;SDS011;3243;50.958;7.012;2024-02-14T07:22:18;2.27;;;1.70;;
6420;SDS011;3243;50.958;7.012;2024-02-14T07:24:47;1.80;;;1.63;;
6420;SDS011;3243;50.958;7.012;2024-02-14T07:27:15;3.27;;;1.40;;
6420;SDS011;3243;50.958;7.012;2024-02-14T07:29:43;3.40;;;1.70;;
6420;SDS011;3243;50.958;7.012;2024-02-14T07:32:11;1.60;;;1.50;;
6420;SDS011;3243;50.958;7.012;2024-02-14T07:34:38;2.07;;;1.50;;
6420;SDS011;3243;50.958;7.012;2024-02-14T07:37:06;1.50;;;1.37;;
6420;SDS011;3243;50.958;7.012;2024-02-14T07:39:33;1.83;;;1.50;;
6420;SDS011;3243;50.958;7.012;2024-02-14T07:42:03;1.87;;;1.60;;
6420;SDS011;3243;50.958;7.012;2024-02-14T07:44:30;2.13;;;1.63;;
6420;SDS011;3243;50.958;7.012;2024-02-14T07:46:57;1.70;;;1.60;;
6420;SDS011;3243;50.958;7.012;2024-02-14T07:49:29;2.83;;;1.90;;
6420;SDS011;3243;50.958;7.012;2024-02-14T07:51:57;2.03;;;1.67;;
6420;SDS011;3243;50.958;7.012;2024-02-14T07:54:24;2.10;;;1.57;;
6420;SDS011;3243;50.958;7.012;2024-02-14T07:56:51;2.20;;;1.90;;
6420;SDS011;3243;50.958;7.012;2024-02-14T07:59:18;1.93;;;1.63;;
6420;SDS011;3243;50.958;7.012;2024-02-14T08:01:46;1.60;;;1.50;;
6420;SDS011;3243;50.958;7.012;2024-02-14T08:04:13;1.87;;;1.57;;
6420;SDS011;3243;50.958;7.012;2024-02-14T08:06:42;2.57;;;1.50;;
6420;SDS011;3243;50.958;7.012;2024-02-14T08:09:11;1.70;;;1.60;;
6420;SDS011;3243;50.958;7.012;2024-02-14T08:11:38;1.80;;;1.50;;
6420;SDS011;3243;50.958;7.012;2024-02-14T08:14:05;1.47;;;1.37;;
6420;SDS011;3243;50.958;7.012;2024-02-14T08:16:32;3.70;;;1.77;;
6420;SDS011;3243;50.958;7.012;2024-02-14T08:18:59;1.70;;;1.60;;
6420;SDS011;3243;50.958;7.012;2024-02-14T08:21:27;3.00;;;1.43;;
6420;SDS011;3243;50.958;7.012;2024-02-14T08:23:57;4.07;;;1.60;;
6420;SDS011;3243;50.958;7.012;2024-02-14T08:26:26;1.87;;;1.40;;
6420;SDS011;3243;50.958;7.012;2024-02-14T08:28:54;1.70;;;1.60;;
6420;SDS011;3243;50.958;7.012;2024-02-14T08:31:21;4.00;;;1.63;;
6420;SDS011;3243;50.958;7.012;2024-02-14T08:33:48;2.60;;;1.50;;
6420;SDS011;3243;50.958;7.012;2024-02-14T08:36:15;1.53;;;1.43;;
6420;SDS011;3243;50.958;7.012;2024-02-14T08:38:48;2.30;;;1.60;;
6420;SDS011;3243;50.958;7.012;2024-02-14T08:41:15;1.83;;;1.50;;
6420;SDS011;3243;50.958;7.012;2024-02-14T08:43:44;3.30;;;1.60;;
6420;SDS011;3243;50.958;7.012;2024-02-14T08:46:13;3.67;;;1.67;;
6420;SDS011;3243;50.958;7.012;2024-02-14T08:48:41;2.00;;;1.60;;
6420;SDS011;3243;50.958;7.012;2024-02-14T08:51:14;1.33;;;1.20;;
6420;SDS011;3243;50.958;7.012;2024-02-14T08:53:42;2.03;;;1.50;;
6420;SDS011;3243;50.958;7.012;2024-02-14T08:56:10;3.17;;;1.50;;
6420;SDS011;3243;50.958;7.012;2024-02-14T08:58:37;2.13;;;1.50;;
6420;SDS011;3243;50.958;7.012;2024-02-14T09:01:04;1.43;;;1.30;;
6420;SDS011;3243;50.958;7.012;2024-02-14T09:03:40;1.90;;;1.40;;
6420;SDS011;3243;50.958;7.012;2024-02-14T09:06:09;1.60;;;1.50;;
6420;SDS011;3243;50.958;7.012;2024-02-14T09:08:36;2.53;;;1.67;;
6420;SDS011;3243;50.958;7.012;2024-02-14T09:11:03;2.33;;;1.30;;
6420;SDS011;3243;50.958;7.012;2024-02-14T09:13:30;1.47;;;1.37;;
6420;SDS011;3243;50.958;7.012;2024-02-14T09:15:57;2.70;;;1.30;;
6420;SDS011;3243;50.958;7.012;2024-02-14T09:18:24;1.93;;;1.40;;
6420;SDS011;3243;50.958;7.012;2024-02-14T09:20:51;2.17;;;1.40;;
6420;SDS011;3243;50.958;7.012;2024-02-14T09:23:19;1.97;;;1.23;;
6420;SDS011;3243;50.958;7.012;2024-02-14T09:25:48;1.93;;;1.30;;
6420;SDS011;3243;50.958;7.012;2024-02-14T09:28:15;3.13;;;1.70;;
6420;SDS011;3243;50.958;7.012;2024-02-14T09:30:42;2.80;;;1.40;;
6420;SDS011;3243;50.958;7.012;2024-02-14T09:33:09;4.43;;;1.40;;
6420;SDS011;3243;50.958;7.012;2024-02-14T09:35:37;2.17;;;1.50;;
6420;SDS011;3243;50.958;7.012;2024-02-14T09:38:10;2.17;;;1.40;;
6420;SDS011;3243;50.958;7.012;2024-02-14T09:40:41;1.83;;;1.30;;
6420;SDS011;3243;50.958;7.012;2024-02-14T09:43:31;2.93;;;1.20;;
6420;SDS011;3243;50.958;7.012;2024-02-14T09:46:02;2.03;;;1.30;;
6420;SDS011;3243;50.958;7.012;2024-02-14T09:48:33;1.83;;;1.40;;
6420;SDS011;3243;50.958;7.012;2024-02-14T09:51:01;1.40;;;1.30;;
6420;SDS011;3243;50.958;7.012;2024-02-14T09:53:29;2.63;;;1.20;;
6420;SDS011;3243;50.958;7.012;2024-02-14T09:55:57;2.20;;;1.30;;
6420;SDS011;3243;50.958;7.012;2024-02-14T09:58:25;2.57;;;1.50;;
6420;SDS011;3243;50.958;7.012;2024-02-14T10:00:53;3.73;;;1.30;;
6420;SDS011;3243;50.958;7.012;2024-02-14T10:03:20;1.97;;;1.20;;
6420;SDS011;3243;50.958;7.012;2024-02-14T10:05:47;1.80;;;1.33;;
6420;SDS011;3243;50.958;7.012;2024-02-14T10:08:14;1.53;;;1.30;;
6420;SDS011;3243;50.958;7.012;2024-02-14T10:10:41;5.47;;;1.57;;
6420;SDS011;3243;50.958;7.012;2024-02-14T10:13:10;4.00;;;1.57;;
6420;SDS011;3243;50.958;7.012;2024-02-14T10:15:37;4.23;;;1.50;;
6420;SDS011;3243;50.958;7.012;2024-02-14T10:18:03;1.80;;;1.10;;
6420;SDS011;3243;50.958;7.012;2024-02-14T10:20:31;3.00;;;1.30;;
6420;SDS011;3243;50.958;7.012;2024-02-14T10:23:01;2.53;;;1.40;;
6420;SDS011;3243;50.958;7.012;2024-02-14T10:25:31;4.00;;;2.07;;
6420;SDS011;3243;50.958;7.012;2024-02-14T10:28:07;3.57;;;1.57;;
6420;SDS011;3243;50.958;7.012;2024-02-14T10:30:37;4.23;;;1.57;;
6420;SDS011;3243;50.958;7.012;2024-02-14T10:33:06;8.20;;;1.90;;
6420;SDS011;3243;50.958;7.012;2024-02-14T10:35:49;6.23;;;2.20;;
6420;SDS011;3243;50.958;7.012;2024-02-14T10:38:18;8.03;;;2.77;;
6420;SDS011;3243;50.958;7.012;2024-02-14T10:40:47;2.93;;;1.20;;
6420;SDS011;3243;50.958;7.012;2024-02-14T10:43:15;3.43;;;1.30;;
6420;SDS011;3243;50.958;7.012;2024-02-14T10:45:41;2.40;;;1.60;;
6420;SDS011;3243;50.958;7.012;2024-02-14T10:48:12;3.37;;;2.00;;
6420;SDS011;3243;50.958;7.012;2024-02-14T10:50:42;2.67;;;1.33;;
6420;SDS011;3243;50.958;7.012;2024-02-14T10:53:12;3.83;;;1.70;;
6420;SDS011;3243;50.958;7.012;2024-02-14T10:55:43;2.73;;;1.43;;
6420;SDS011;3243;50.958;7.012;2024-02-14T10:58:14;2.57;;;1.40;;
6420;SDS011;3243;50.958;7.012;2024-02-14T11:00:43;3.63;;;1.60;;
6420;SDS011;3243;50.958;7.012;2024-02-14T11:03:11;2.57;;;1.30;;
6420;SDS011;3243;50.958;7.012;2024-02-14T11:05:47;1.87;;;1.40;;
6420;SDS011;3243;50.958;7.012;2024-02-14T11:08:19;3.93;;;1.70;;
6420;SDS011;3243;50.958;7.012;2024-02-14T11:10:54;3.53;;;1.70;;
6420;SDS011;3243;50.958;7.012;2024-02-14T11:13:25;4.57;;;1.87;;
6420;SDS011;3243;50.958;7.012;2024-02-14T11:16:02;3.37;;;1.47;;
6420;SDS011;3243;50.958;7.012;2024-02-14T11:18:31;2.47;;;1.43;;
6420;SDS011;3243;50.958;7.012;2024-02-14T11:21:02;3.20;;;1.40;;
6420;SDS011;3243;50.958;7.012;2024-02-14T11:23:30;2.47;;;1.60;;
6420;SDS011;3243;50.958;7.012;2024-02-14T11:26:01;2.10;;;1.40;;
6420;SDS011;3243;50.958;7.012;2024-02-14T11:28:30;1.77;;;1.50;;
6420;SDS011;3243;50.958;7.012;2024-02-14T11:31:00;5.20;;;1.70;;
6420;SDS011;3243;50.958;7.012;2024-02-14T11:33:30;1.97;;;1.40;;
6420;SDS011;3243;50.958;7.012;2024-02-14T11:35:57;2.53;;;1.33;;
6420;SDS011;3243;50.958;7.012;2024-02-14T11:38:25;2.40;;;1.50;;
6420;SDS011;3243;50.958;7.012;2024-02-14T11:40:55;2.50;;;1.60;;
6420;SDS011;3243;50.958;7.012;2024-02-14T11:43:23;2.23;;;1.40;;
6420;SDS011;3243;50.958;7.012;2024-02-14T11:45:50;2.20;;;1.40;;
6420;SDS011;3243;50.958;7.012;2024-02-14T11:48:20;1.47;;;1.37;;
6420;SDS011;3243;50.958;7.012;2024-02-14T11:50:51;4.53;;;2.10;;
6420;SDS011;3243;50.958;7.012;2024-02-14T11:53:19;2.73;;;1.50;;
6420;SDS011;3243;50.958;7.012;2024-02-14T11:55:47;3.03;;;1.47;;
6420;SDS011;3243;50.958;7.012;2024-02-14T11:58:15;2.43;;;1.30;;
6420;SDS011;3243;50.958;7.012;2024-02-14T12:00:43;3.23;;;1.33;;
6420;SDS011;3243;50.958;7.012;2024-02-14T12:03:32;2.40;;;1.20;;
6420;SDS011;3243;50.958;7.012;2024-02-14T12:05:58;3.03;;;1.40;;
6420;SDS011;3243;50.958;7.012;2024-02-14T12:08:26;1.53;;;1.20;;
6420;SDS011;3243;50.958;7.012;2024-02-14T12:10:53;1.40;;;1.20;;
6420;SDS011;3243;50.958;7.012;2024-02-14T12:13:20;2.20;;;1.13;;
6420;SDS011;3243;50.958;7.012;2024-02-14T12:15:49;1.53;;;1.17;;
6420;SDS011;3243;50.958;7.012;2024-02-14T12:18:19;1.90;;;1.43;;
6420;SDS011;3243;50.958;7.012;2024-02-14T12:20:47;1.67;;;1.10;;
6420;SDS011;3243;50.958;7.012;2024-02-14T12:23:22;1.33;;;1.17;;
6420;SDS011;3243;50.958;7.012;2024-02-14T12:25:49;1.53;;;0.90;;
6420;SDS011;3243;50.958;7.012;2024-02-14T12:28:17;1.90;;;0.97;;
6420;SDS011;3243;50.958;7.012;2024-02-14T12:33:22;1.50;;;1.10;;
6420;SDS011;3243;50.958;7.012;2024-02-14T12:35:51;1.90;;;1.00;;
6420;SDS011;3243;50.958;7.012;2024-02-14T12:38:20;1.27;;;1.03;;
6420;SDS011;3243;50.958;7.012;2024-02-14T12:40:49;1.10;;;1.00;;
6420;SDS011;3243;50.958;7.012;2024-02-14T12:43:16;2.30;;;1.07;;
6420;SDS011;3243;50.958;7.012;2024-02-14T12:45:43;2.50;;;1.30;;
6420;SDS011;3243;50.958;7.012;2024-02-14T12:48:11;2.57;;;1.43;;
6420;SDS011;3243;50.958;7.012;2024-02-14T12:50:40;1.33;;;1.23;;
6420;SDS011;3243;50.958;7.012;2024-02-14T12:53:13;1.20;;;1.03;;
6420;SDS011;3243;50.958;7.012;2024-02-14T12:55:40;2.47;;;1.20;;
6420;SDS011;3243;50.958;7.012;2024-02-14T12:58:07;1.30;;;1.10;;
6420;SDS011;3243;50.958;7.012;2024-02-14T13:00:35;0.90;;;0.90;;
6420;SDS011;3243;50.958;7.012;2024-02-14T13:03:04;0.87;;;0.87;;
6420;SDS011;3243;50.958;7.012;2024-02-14T13:05:31;1.17;;;1.07;;
6420;SDS011;3243;50.958;7.012;2024-02-14T13:07:58;3.23;;;1.27;;
6420;SDS011;3243;50.958;7.012;2024-02-14T13:10:25;1.30;;;1.10;;
6420;SDS011;3243;50.958;7.012;2024-02-14T13:12:52;1.20;;;1.10;;
6420;SDS011;3243;50.958;7.012;2024-02-14T13:15:22;1.10;;;1.10;;
6420;SDS011;3243;50.958;7.012;2024-02-14T13:17:49;1.23;;;0.90;;
6420;SDS011;3243;50.958;7.012;2024-02-14T13:20:16;1.53;;;1.30;;
6420;SDS011;3243;50.958;7.012;2024-02-14T13:22:43;1.00;;;1.00;;
6420;SDS011;3243;50.958;7.012;2024-02-14T13:25:10;4.57;;;1.17;;
6420;SDS011;3243;50.958;7.012;2024-02-14T13:27:39;1.73;;;0.90;;
6420;SDS011;3243;50.958;7.012;2024-02-14T13:30:06;1.40;;;1.30;;
6420;SDS011;3243;50.958;7.012;2024-02-14T13:32:33;3.40;;;1.30;;
6420;SDS011;3243;50.958;7.012;2024-02-14T13:35:00;3.17;;;1.50;;
6420;SDS011;3243;50.958;7.012;2024-02-14T13:37:28;2.53;;;1.80;;
6420;SDS011;3243;50.958;7.012;2024-02-14T13:39:57;3.63;;;1.80;;
6420;SDS011;3243;50.958;7.012;2024-02-14T13:42:25;1.40;;;1.30;;
6420;SDS011;3243;50.958;7.012;2024-02-14T13:44:51;2.47;;;1.47;;
6420;SDS011;3243;50.958;7.012;2024-02-14T13:47:20;1.37;;;1.27;;
6420;SDS011;3243;50.958;7.012;2024-02-14T13:49:47;1.57;;;1.47;;
6420;SDS011;3243;50.958;7.012;2024-02-14T13:52:14;1.33;;;1.23;;
6420;SDS011;3243;50.958;7.012;2024-02-14T13:54:43;1.60;;;1.50;;
6420;SDS011;3243;50.958;7.012;2024-02-14T13:57:10;1.97;;;1.37;;
6420;SDS011;3243;50.958;7.012;2024-02-14T13:59:38;3.53;;;1.30;;
6420;SDS011;3243;50.958;7.012;2024-02-14T14:02:05;2.10;;;1.50;;
6420;SDS011;3243;50.958;7.012;2024-02-14T14:04:32;1.33;;;1.23;;
6420;SDS011;3243;50.958;7.012;2024-02-14T14:07:01;2.63;;;1.27;;
6420;SDS011;3243;50.958;7.012;2024-02-14T14:09:30;3.00;;;1.40;;
6420;SDS011;3243;50.958;7.012;2024-02-14T14:11:59;2.43;;;1.40;;
6420;SDS011;3243;50.958;7.012;2024-02-14T14:14:26;5.00;;;1.37;;
6420;SDS011;3243;50.958;7.012;2024-02-14T14:16:54;1.63;;;1.50;;
6420;SDS011;3243;50.958;7.012;2024-02-14T14:19:23;2.10;;;1.53;;
6420;SDS011;3243;50.958;7.012;2024-02-14T14:21:50;2.50;;;1.53;;
6420;SDS011;3243;50.958;7.012;2024-02-14T14:24:17;3.10;;;1.47;;
6420;SDS011;3243;50.958;7.012;2024-02-14T14:26:44;2.60;;;1.33;;
6420;SDS011;3243;50.958;7.012;2024-02-14T14:29:11;5.17;;;1.60;;
6420;SDS011;3243;50.958;7.012;2024-02-14T14:31:39;2.03;;;1.50;;
6420;SDS011;3243;50.958;7.012;2024-02-14T14:34:06;2.83;;;1.70;;
6420;SDS011;3243;50.958;7.012;2024-02-14T14:36:34;3.00;;;2.13;;
6420;SDS011;3243;50.958;7.012;2024-02-14T14:39:03;2.63;;;2.10;;
6420;SDS011;3243;50.958;7.012;2024-02-14T14:41:31;2.83;;;2.10;;
6420;SDS011;3243;50.958;7.012;2024-02-14T14:43:57;2.80;;;1.67;;
6420;SDS011;3243;50.958;7.012;2024-02-14T14:46:25;3.00;;;1.87;;
6420;SDS011;3243;50.958;7.012;2024-02-14T14:48:52;4.77;;;1.60;;
6420;SDS011;3243;50.958;7.012;2024-02-14T14:51:19;2.10;;;1.50;;
6420;SDS011;3243;50.958;7.012;2024-02-14T14:53:46;2.13;;;1.70;;
6420;SDS011;3243;50.958;7.012;2024-02-14T14:56:13;2.33;;;1.90;;
6420;SDS011;3243;50.958;7.012;2024-02-14T14:58:41;2.77;;;2.00;;
6420;SDS011;3243;50.958;7.012;2024-02-14T15:01:08;3.73;;;1.90;;
6420;SDS011;3243;50.958;7.012;2024-02-14T15:03:35;3.20;;;2.20;;
6420;SDS011;3243;50.958;7.012;2024-02-14T15:06:02;2.70;;;1.90;;
6420;SDS011;3243;50.958;7.012;2024-02-14T15:08:30;2.53;;;1.80;;
6420;SDS011;3243;50.958;7.012;2024-02-14T15:10:57;2.27;;;1.80;;
6420;SDS011;3243;50.958;7.012;2024-02-14T15:13:24;2.03;;;1.70;;
6420;SDS011;3243;50.958;7.012;2024-02-14T15:15:51;2.40;;;1.70;;
6420;SDS011;3243;50.958;7.012;2024-02-14T15:18:19;2.03;;;1.70;;
6420;SDS011;3243;50.958;7.012;2024-02-14T15:20:46;2.00;;;1.50;;
6420;SDS011;3243;50.958;7.012;2024-02-14T15:23:13;2.63;;;2.00;;